Detalii statie ERDEI ROBERT [00001D0F]

Toti senzorii

Date Temperatura solului [C]Precipitatii [mm]Voltaj baterie [mV]Leaf Wetness [Min]HC Air temperature [C]HC Relative humidity [%]Punctul de roua [C]
medieminmaxsumaultimatimpmedieminmaxmediemediemin
2019-06-15 17:00:00 0 7098 34.78 33.8 35.8 0 0 0
2019-06-15 18:00:00 0 7088 34.44 33.99 34.95 0 0 0
2019-06-15 19:00:00 0 6766 60 33.14 32.04 33.95 0 0 0
2019-06-15 20:00:00 0 6678 30.03 28.07 31.82 0 0 0
2019-06-15 21:00:00 0 6678 26.05 24.64 27.66 0 0 0
2019-06-15 22:00:00 0 6678 23.81 22.87 24.46 0 0 0
2019-06-15 23:00:00 0 6678 22.24 21.66 22.76 0 0 0
2019-06-16 00:00:00 0 6660 21.44 21.09 21.99 0 0 0
2019-06-16 01:00:00 0 6660 21.08 20.95 21.33 0 0 0
2019-06-16 02:00:00 0 6668 20.6 20.27 20.99 0 0 0
2019-06-16 03:00:00 0 6668 20.66 20.32 21.01 0 0 0
2019-06-16 04:00:00 0 6668 19.87 19.59 20.27 0 0 0
2019-06-16 05:00:00 0 6660 19.97 19.23 20.14 0 0 0
2019-06-16 06:00:00 0 6698 20.47 19.93 21.65 0 0 0
2019-06-16 07:00:00 0 6748 23.63 21.86 25.84 0 0 0
2019-06-16 08:00:00 0 6854 26.47 25.49 27.73 0 0 0
2019-06-16 09:00:00 0 7148 29.26 27.43 30.42 0 0 0
2019-06-16 10:00:00 0 7138 31.63 30.34 33.22 0 0 0
2019-06-16 11:00:00 0 7138 32.96 31.51 34.58 0 0 0
2019-06-16 12:00:00 0 7128 34.26 32.8 35.23 0 0 0
2019-06-16 13:00:00 0 7138 34.99 34.06 36.44 0 0 0
2019-06-16 14:00:00 0 7138 34.53 33.52 35.84 0 0 0
2019-06-16 15:00:00 0 7108 35.1 33.38 36.48 0 0 0
2019-06-16 16:00:00 0 7108 34.07 32.72 35.23 0 0 0
2019-06-16 17:00:00 0 7098 33.72 33.12 34.71 0 0 0
2019-06-16 18:00:00 0 7098 32.66 32.04 33.41 0 0 0
2019-06-16 19:00:00 0 7098 31.41 29.87 32.3 0 0 0
2019-06-16 20:00:00 0 6678 28.07 26.55 29.69 0 0 0
2019-06-16 21:00:00 0 6668 23.96 23.42 25.69 0 0 0
2019-06-16 22:00:00 0 6678 22.83 21.75 23.5 0 0 0
2019-06-16 23:00:00 0.2 6668 21.03 19.82 22.03 0 0 0
2019-06-17 00:00:00 0.4 6668 19.88 19.45 20.25 0 0 0
2019-06-17 01:00:00 1.8 6660 19.41 19.18 19.7 0 0 0
2019-06-17 02:00:00 0.8 6668 19.28 18.95 19.53 0 0 0
2019-06-17 03:00:00 0.2 6660 19.01 18.88 19.15 0 0 0
2019-06-17 04:00:00 0 6660 19.38 19.1 19.71 0 0 0
2019-06-17 05:00:00 0 6660 19.11 18.6 19.54 0 0 0
2019-06-17 06:00:00 0 6718 19.23 18.48 20.51 0 0 0
2019-06-17 07:00:00 0 6748 20.48 20.22 20.89 0 0 0
2019-06-17 08:00:00 0 7030 21.58 20.51 23.18 0 0 0
2019-06-17 09:00:00 0 7148 24.32 23.55 25.29 0 0 0
2019-06-17 10:00:00 0 7138 24.67 23.53 25.7 0 0 0
2019-06-17 11:00:00 0 7128 23.84 23.6 24.19 0 0 0
2019-06-17 12:00:00 0 7148 24.04 23.6 24.31 0 0 0
2019-06-17 13:00:00 0 7128 25.15 24.62 25.59 0 0 0
2019-06-17 14:00:00 0 7148 27.02 25.56 27.84 0 0 0
2019-06-17 15:00:00 0 7128 27.83 26.58 29.14 0 0 0
2019-06-17 16:00:00 0 7088 29.1 28.65 29.71 0 0 0